sensor_id;sensor_type;location;lat;lon;timestamp;P1;durP1;ratioP1;P2;durP2;ratioP2
3299;SDS011;1662;49.310;8.134;2024-03-02T00:00:08;4.43;;;4.13;;
3299;SDS011;1662;49.310;8.134;2024-03-02T00:02:44;3.90;;;3.60;;
3299;SDS011;1662;49.310;8.134;2024-03-02T00:05:18;3.00;;;2.80;;
3299;SDS011;1662;49.310;8.134;2024-03-02T00:07:45;3.80;;;3.60;;
3299;SDS011;1662;49.310;8.134;2024-03-02T00:10:22;3.70;;;3.40;;
3299;SDS011;1662;49.310;8.134;2024-03-02T00:12:56;2.90;;;2.70;;
3299;SDS011;1662;49.310;8.134;2024-03-02T00:18:20;3.43;;;3.23;;
3299;SDS011;1662;49.310;8.134;2024-03-02T00:20:49;3.87;;;3.67;;
3299;SDS011;1662;49.310;8.134;2024-03-02T00:23:26;3.30;;;3.10;;
3299;SDS011;1662;49.310;8.134;2024-03-02T00:25:56;3.40;;;3.30;;
3299;SDS011;1662;49.310;8.134;2024-03-02T00:31:02;2.80;;;2.70;;
3299;SDS011;1662;49.310;8.134;2024-03-02T00:33:36;3.60;;;3.40;;
3299;SDS011;1662;49.310;8.134;2024-03-02T00:36:09;3.30;;;3.20;;
3299;SDS011;1662;49.310;8.134;2024-03-02T00:38:46;3.77;;;3.60;;
3299;SDS011;1662;49.310;8.134;2024-03-02T00:41:24;3.73;;;3.53;;
3299;SDS011;1662;49.310;8.134;2024-03-02T00:46:26;3.93;;;3.63;;
3299;SDS011;1662;49.310;8.134;2024-03-02T00:48:59;3.63;;;3.33;;
3299;SDS011;1662;49.310;8.134;2024-03-02T00:51:27;3.67;;;3.37;;
3299;SDS011;1662;49.310;8.134;2024-03-02T00:53:58;3.27;;;3.07;;
3299;SDS011;1662;49.310;8.134;2024-03-02T00:56:29;3.40;;;3.20;;
3299;SDS011;1662;49.310;8.134;2024-03-02T00:58:55;3.60;;;3.50;;
3299;SDS011;1662;49.310;8.134;2024-03-02T01:01:23;3.67;;;3.43;;
3299;SDS011;1662;49.310;8.134;2024-03-02T01:03:49;3.50;;;3.30;;
3299;SDS011;1662;49.310;8.134;2024-03-02T01:06:18;3.87;;;3.57;;
3299;SDS011;1662;49.310;8.134;2024-03-02T01:08:44;3.53;;;3.23;;
3299;SDS011;1662;49.310;8.134;2024-03-02T01:11:11;3.40;;;3.20;;
3299;SDS011;1662;49.310;8.134;2024-03-02T01:13:36;3.83;;;3.63;;
3299;SDS011;1662;49.310;8.134;2024-03-02T01:16:02;4.50;;;4.20;;
3299;SDS011;1662;49.310;8.134;2024-03-02T01:18:29;4.57;;;4.20;;
3299;SDS011;1662;49.310;8.134;2024-03-02T01:20:57;4.40;;;4.10;;
3299;SDS011;1662;49.310;8.134;2024-03-02T01:23:22;3.67;;;3.47;;
3299;SDS011;1662;49.310;8.134;2024-03-02T01:25:49;4.20;;;3.90;;
3299;SDS011;1662;49.310;8.134;2024-03-02T01:28:15;4.87;;;4.47;;
3299;SDS011;1662;49.310;8.134;2024-03-02T01:30:41;4.00;;;3.80;;
3299;SDS011;1662;49.310;8.134;2024-03-02T01:33:07;4.37;;;4.07;;
3299;SDS011;1662;49.310;8.134;2024-03-02T01:35:33;5.60;;;4.17;;
3299;SDS011;1662;49.310;8.134;2024-03-02T01:37:59;3.73;;;3.53;;
3299;SDS011;1662;49.310;8.134;2024-03-02T01:40:26;5.00;;;4.60;;
3299;SDS011;1662;49.310;8.134;2024-03-02T01:42:52;5.53;;;5.13;;
3299;SDS011;1662;49.310;8.134;2024-03-02T01:45:23;5.20;;;4.80;;
3299;SDS011;1662;49.310;8.134;2024-03-02T01:47:48;5.03;;;4.73;;
3299;SDS011;1662;49.310;8.134;2024-03-02T01:50:14;4.50;;;4.27;;
3299;SDS011;1662;49.310;8.134;2024-03-02T01:52:40;5.07;;;4.67;;
3299;SDS011;1662;49.310;8.134;2024-03-02T01:55:08;4.37;;;4.07;;
3299;SDS011;1662;49.310;8.134;2024-03-02T01:57:36;4.27;;;3.97;;
3299;SDS011;1662;49.310;8.134;2024-03-02T02:00:02;4.80;;;4.03;;
3299;SDS011;1662;49.310;8.134;2024-03-02T02:02:28;4.90;;;4.50;;
3299;SDS011;1662;49.310;8.134;2024-03-02T02:04:54;4.93;;;4.63;;
3299;SDS011;1662;49.310;8.134;2024-03-02T02:07:19;6.17;;;4.73;;
3299;SDS011;1662;49.310;8.134;2024-03-02T02:09:47;4.37;;;4.07;;
3299;SDS011;1662;49.310;8.134;2024-03-02T02:12:16;4.20;;;4.00;;
3299;SDS011;1662;49.310;8.134;2024-03-02T02:14:48;4.20;;;3.90;;
3299;SDS011;1662;49.310;8.134;2024-03-02T02:17:19;4.83;;;4.53;;
3299;SDS011;1662;49.310;8.134;2024-03-02T02:19:45;4.80;;;4.50;;
3299;SDS011;1662;49.310;8.134;2024-03-02T02:22:10;4.90;;;4.60;;
3299;SDS011;1662;49.310;8.134;2024-03-02T02:24:39;4.67;;;4.27;;
3299;SDS011;1662;49.310;8.134;2024-03-02T02:27:06;4.30;;;4.00;;
3299;SDS011;1662;49.310;8.134;2024-03-02T02:29:40;4.47;;;4.17;;
3299;SDS011;1662;49.310;8.134;2024-03-02T02:32:06;4.10;;;3.87;;
3299;SDS011;1662;49.310;8.134;2024-03-02T02:34:32;4.93;;;4.50;;
3299;SDS011;1662;49.310;8.134;2024-03-02T02:36:58;3.80;;;3.60;;
3299;SDS011;1662;49.310;8.134;2024-03-02T02:39:24;4.03;;;3.70;;
3299;SDS011;1662;49.310;8.134;2024-03-02T02:41:49;4.27;;;3.87;;
3299;SDS011;1662;49.310;8.134;2024-03-02T02:44:15;4.33;;;4.03;;
3299;SDS011;1662;49.310;8.134;2024-03-02T02:46:43;3.40;;;3.20;;
3299;SDS011;1662;49.310;8.134;2024-03-02T02:49:08;3.40;;;3.27;;
3299;SDS011;1662;49.310;8.134;2024-03-02T02:51:37;3.35;;;3.25;;
3299;SDS011;1662;49.310;8.134;2024-03-02T02:54:05;3.78;;;3.58;;
3299;SDS011;1662;49.310;8.134;2024-03-02T02:56:33;4.63;;;4.30;;
3299;SDS011;1662;49.310;8.134;2024-03-02T02:59:08;4.57;;;4.17;;
3299;SDS011;1662;49.310;8.134;2024-03-02T03:01:34;4.38;;;4.07;;
3299;SDS011;1662;49.310;8.134;2024-03-02T03:04:00;4.40;;;4.13;;
3299;SDS011;1662;49.310;8.134;2024-03-02T03:06:25;3.60;;;3.40;;
3299;SDS011;1662;49.310;8.134;2024-03-02T03:08:53;4.13;;;3.90;;
3299;SDS011;1662;49.310;8.134;2024-03-02T03:11:19;3.72;;;3.50;;
3299;SDS011;1662;49.310;8.134;2024-03-02T03:13:44;4.50;;;4.20;;
3299;SDS011;1662;49.310;8.134;2024-03-02T03:16:13;4.60;;;4.20;;
3299;SDS011;1662;49.310;8.134;2024-03-02T03:18:38;4.27;;;3.97;;
3299;SDS011;1662;49.310;8.134;2024-03-02T03:21:04;4.07;;;3.67;;
3299;SDS011;1662;49.310;8.134;2024-03-02T03:23:34;3.20;;;3.00;;
3299;SDS011;1662;49.310;8.134;2024-03-02T03:26:00;3.53;;;3.43;;
3299;SDS011;1662;49.310;8.134;2024-03-02T03:28:25;4.23;;;3.93;;
3299;SDS011;1662;49.310;8.134;2024-03-02T03:30:51;3.93;;;3.73;;
3299;SDS011;1662;49.310;8.134;2024-03-02T03:33:16;4.20;;;3.90;;
3299;SDS011;1662;49.310;8.134;2024-03-02T03:35:44;3.92;;;3.72;;
3299;SDS011;1662;49.310;8.134;2024-03-02T03:38:10;3.73;;;3.50;;
3299;SDS011;1662;49.310;8.134;2024-03-02T03:40:35;4.40;;;4.03;;
3299;SDS011;1662;49.310;8.134;2024-03-02T03:43:02;4.00;;;3.80;;
3299;SDS011;1662;49.310;8.134;2024-03-02T03:45:27;4.80;;;4.40;;
3299;SDS011;1662;49.310;8.134;2024-03-02T03:47:53;4.60;;;4.20;;
3299;SDS011;1662;49.310;8.134;2024-03-02T03:50:19;5.72;;;5.05;;
3299;SDS011;1662;49.310;8.134;2024-03-02T03:52:45;4.87;;;4.47;;
3299;SDS011;1662;49.310;8.134;2024-03-02T03:55:11;4.77;;;4.47;;
3299;SDS011;1662;49.310;8.134;2024-03-02T03:57:36;5.03;;;4.67;;
3299;SDS011;1662;49.310;8.134;2024-03-02T04:00:05;5.03;;;4.72;;
3299;SDS011;1662;49.310;8.134;2024-03-02T04:02:31;4.70;;;4.40;;
3299;SDS011;1662;49.310;8.134;2024-03-02T04:04:57;4.93;;;4.63;;
3299;SDS011;1662;49.310;8.134;2024-03-02T04:07:23;5.00;;;4.57;;
3299;SDS011;1662;49.310;8.134;2024-03-02T04:09:48;5.40;;;4.90;;
3299;SDS011;1662;49.310;8.134;2024-03-02T04:12:17;5.30;;;4.73;;
3299;SDS011;1662;49.310;8.134;2024-03-02T04:14:43;5.53;;;5.13;;
3299;SDS011;1662;49.310;8.134;2024-03-02T04:17:08;5.67;;;5.17;;
3299;SDS011;1662;49.310;8.134;2024-03-02T04:19:34;6.28;;;5.50;;
3299;SDS011;1662;49.310;8.134;2024-03-02T04:22:00;5.20;;;4.90;;
3299;SDS011;1662;49.310;8.134;2024-03-02T04:24:25;5.33;;;4.93;;
3299;SDS011;1662;49.310;8.134;2024-03-02T04:26:51;5.73;;;5.33;;
3299;SDS011;1662;49.310;8.134;2024-03-02T04:29:17;5.80;;;5.40;;
3299;SDS011;1662;49.310;8.134;2024-03-02T04:31:42;6.80;;;6.30;;
3299;SDS011;1662;49.310;8.134;2024-03-02T04:34:08;5.90;;;5.43;;
3299;SDS011;1662;49.310;8.134;2024-03-02T04:36:34;6.10;;;5.50;;
3299;SDS011;1662;49.310;8.134;2024-03-02T04:38:59;5.00;;;4.60;;
3299;SDS011;1662;49.310;8.134;2024-03-02T04:41:27;5.95;;;5.45;;
3299;SDS011;1662;49.310;8.134;2024-03-02T04:43:53;6.30;;;5.73;;
3299;SDS011;1662;49.310;8.134;2024-03-02T04:46:21;6.90;;;6.30;;
3299;SDS011;1662;49.310;8.134;2024-03-02T04:48:47;6.97;;;6.43;;
3299;SDS011;1662;49.310;8.134;2024-03-02T04:51:19;6.30;;;5.78;;
3299;SDS011;1662;49.310;8.134;2024-03-02T04:53:45;7.83;;;7.17;;
3299;SDS011;1662;49.310;8.134;2024-03-02T04:56:11;7.20;;;6.57;;
3299;SDS011;1662;49.310;8.134;2024-03-02T04:59:05;7.07;;;6.47;;
3299;SDS011;1662;49.310;8.134;2024-03-02T05:01:31;8.35;;;7.65;;
3299;SDS011;1662;49.310;8.134;2024-03-02T05:04:00;8.45;;;7.65;;
3299;SDS011;1662;49.310;8.134;2024-03-02T05:06:26;9.55;;;8.65;;
3299;SDS011;1662;49.310;8.134;2024-03-02T05:08:51;10.97;;;9.73;;
3299;SDS011;1662;49.310;8.134;2024-03-02T05:11:17;11.20;;;10.10;;
3299;SDS011;1662;49.310;8.134;2024-03-02T05:14:05;10.88;;;9.90;;
3299;SDS011;1662;49.310;8.134;2024-03-02T05:16:35;13.80;;;12.35;;
3299;SDS011;1662;49.310;8.134;2024-03-02T05:19:03;12.48;;;11.27;;
3299;SDS011;1662;49.310;8.134;2024-03-02T05:21:31;15.10;;;12.35;;
3299;SDS011;1662;49.310;8.134;2024-03-02T05:24:00;16.67;;;13.68;;
3299;SDS011;1662;49.310;8.134;2024-03-02T05:26:25;17.47;;;15.57;;
3299;SDS011;1662;49.310;8.134;2024-03-02T05:28:51;19.27;;;17.27;;
3299;SDS011;1662;49.310;8.134;2024-03-02T05:31:17;19.97;;;16.87;;
3299;SDS011;1662;49.310;8.134;2024-03-02T05:33:43;13.67;;;12.27;;
3299;SDS011;1662;49.310;8.134;2024-03-02T05:36:09;20.70;;;18.50;;
3299;SDS011;1662;49.310;8.134;2024-03-02T05:38:37;21.13;;;18.27;;
3299;SDS011;1662;49.310;8.134;2024-03-02T05:41:03;20.00;;;17.97;;
3299;SDS011;1662;49.310;8.134;2024-03-02T05:43:29;17.85;;;15.95;;
3299;SDS011;1662;49.310;8.134;2024-03-02T05:45:55;15.80;;;14.20;;
3299;SDS011;1662;49.310;8.134;2024-03-02T05:48:23;16.30;;;14.60;;
3299;SDS011;1662;49.310;8.134;2024-03-02T05:50:49;18.37;;;15.20;;
3299;SDS011;1662;49.310;8.134;2024-03-02T05:53:14;15.20;;;13.53;;
3299;SDS011;1662;49.310;8.134;2024-03-02T05:55:40;20.40;;;14.77;;
3299;SDS011;1662;49.310;8.134;2024-03-02T05:58:10;15.20;;;13.60;;
3299;SDS011;1662;49.310;8.134;2024-03-02T06:00:57;14.80;;;13.40;;
3299;SDS011;1662;49.310;8.134;2024-03-02T06:03:26;14.57;;;13.05;;
3299;SDS011;1662;49.310;8.134;2024-03-02T06:05:53;15.77;;;13.85;;
3299;SDS011;1662;49.310;8.134;2024-03-02T06:08:19;14.97;;;13.23;;
3299;SDS011;1662;49.310;8.134;2024-03-02T06:10:44;14.23;;;12.60;;
3299;SDS011;1662;49.310;8.134;2024-03-02T06:13:10;13.13;;;11.77;;
3299;SDS011;1662;49.310;8.134;2024-03-02T06:15:36;13.80;;;12.37;;
3299;SDS011;1662;49.310;8.134;2024-03-02T06:18:02;14.07;;;12.57;;
3299;SDS011;1662;49.310;8.134;2024-03-02T06:20:28;16.43;;;14.83;;
3299;SDS011;1662;49.310;8.134;2024-03-02T06:22:55;15.80;;;14.15;;
3299;SDS011;1662;49.310;8.134;2024-03-02T06:25:21;16.07;;;14.30;;
3299;SDS011;1662;49.310;8.134;2024-03-02T06:27:47;14.53;;;13.03;;
3299;SDS011;1662;49.310;8.134;2024-03-02T06:30:12;14.17;;;12.77;;
3299;SDS011;1662;49.310;8.134;2024-03-02T06:32:38;14.97;;;13.60;;
3299;SDS011;1662;49.310;8.134;2024-03-02T06:35:06;19.77;;;15.10;;
3299;SDS011;1662;49.310;8.134;2024-03-02T06:37:35;15.73;;;14.10;;
3299;SDS011;1662;49.310;8.134;2024-03-02T06:40:04;17.58;;;14.15;;
3299;SDS011;1662;49.310;8.134;2024-03-02T06:42:32;16.30;;;14.60;;
3299;SDS011;1662;49.310;8.134;2024-03-02T06:44:58;16.60;;;14.20;;
3299;SDS011;1662;49.310;8.134;2024-03-02T06:47:24;17.45;;;14.20;;
3299;SDS011;1662;49.310;8.134;2024-03-02T06:49:50;19.17;;;16.60;;
3299;SDS011;1662;49.310;8.134;2024-03-02T06:52:16;18.90;;;15.10;;
3299;SDS011;1662;49.310;8.134;2024-03-02T06:54:42;17.23;;;14.10;;
3299;SDS011;1662;49.310;8.134;2024-03-02T06:57:07;18.37;;;14.77;;
3299;SDS011;1662;49.310;8.134;2024-03-02T06:59:36;14.98;;;13.15;;
3299;SDS011;1662;49.310;8.134;2024-03-02T07:02:02;26.67;;;18.17;;
3299;SDS011;1662;49.310;8.134;2024-03-02T07:04:30;18.37;;;16.13;;
3299;SDS011;1662;49.310;8.134;2024-03-02T07:06:56;24.83;;;19.00;;
3299;SDS011;1662;49.310;8.134;2024-03-02T07:09:21;25.37;;;18.60;;
3299;SDS011;1662;49.310;8.134;2024-03-02T07:11:48;28.45;;;20.73;;
3299;SDS011;1662;49.310;8.134;2024-03-02T07:14:14;83.03;;;50.27;;
3299;SDS011;1662;49.310;8.134;2024-03-02T07:16:40;83.17;;;51.23;;
3299;SDS011;1662;49.310;8.134;2024-03-02T07:19:08;51.07;;;32.57;;
3299;SDS011;1662;49.310;8.134;2024-03-02T07:21:34;49.80;;;32.17;;
3299;SDS011;1662;49.310;8.134;2024-03-02T07:24:01;46.10;;;31.20;;
3299;SDS011;1662;49.310;8.134;2024-03-02T07:26:31;51.67;;;34.50;;
3299;SDS011;1662;49.310;8.134;2024-03-02T07:28:57;47.80;;;32.20;;
3299;SDS011;1662;49.310;8.134;2024-03-02T07:31:22;40.97;;;28.50;;
3299;SDS011;1662;49.310;8.134;2024-03-02T07:33:48;29.30;;;22.77;;
3299;SDS011;1662;49.310;8.134;2024-03-02T07:36:14;19.80;;;16.10;;
3299;SDS011;1662;49.310;8.134;2024-03-02T07:38:40;16.00;;;14.30;;
3299;SDS011;1662;49.310;8.134;2024-03-02T07:41:09;18.10;;;14.53;;
3299;SDS011;1662;49.310;8.134;2024-03-02T07:43:36;17.63;;;15.90;;
3299;SDS011;1662;49.310;8.134;2024-03-02T07:46:06;17.80;;;14.93;;
3299;SDS011;1662;49.310;8.134;2024-03-02T07:48:32;15.07;;;13.43;;
3299;SDS011;1662;49.310;8.134;2024-03-02T07:50:58;15.97;;;14.30;;
3299;SDS011;1662;49.310;8.134;2024-03-02T07:53:23;16.03;;;14.43;;
3299;SDS011;1662;49.310;8.134;2024-03-02T07:55:49;15.73;;;14.13;;
3299;SDS011;1662;49.310;8.134;2024-03-02T07:58:17;14.73;;;13.17;;
3299;SDS011;1662;49.310;8.134;2024-03-02T08:00:44;15.33;;;13.33;;
3299;SDS011;1662;49.310;8.134;2024-03-02T08:03:10;15.97;;;14.20;;
3299;SDS011;1662;49.310;8.134;2024-03-02T08:05:36;14.47;;;13.00;;
3299;SDS011;1662;49.310;8.134;2024-03-02T08:08:02;14.83;;;12.80;;
3299;SDS011;1662;49.310;8.134;2024-03-02T08:10:29;14.20;;;12.77;;
3299;SDS011;1662;49.310;8.134;2024-03-02T08:12:55;13.03;;;11.80;;
3299;SDS011;1662;49.310;8.134;2024-03-02T08:15:20;12.87;;;11.67;;
3299;SDS011;1662;49.310;8.134;2024-03-02T08:17:46;12.20;;;11.03;;
3299;SDS011;1662;49.310;8.134;2024-03-02T08:20:14;11.83;;;10.47;;
3299;SDS011;1662;49.310;8.134;2024-03-02T08:22:41;10.67;;;9.70;;
3299;SDS011;1662;49.310;8.134;2024-03-02T08:25:06;11.60;;;10.50;;
3299;SDS011;1662;49.310;8.134;2024-03-02T08:27:33;10.67;;;9.77;;
3299;SDS011;1662;49.310;8.134;2024-03-02T08:30:02;12.00;;;10.80;;
3299;SDS011;1662;49.310;8.134;2024-03-02T08:32:31;11.97;;;10.83;;
3299;SDS011;1662;49.310;8.134;2024-03-02T08:35:00;10.80;;;9.53;;
3299;SDS011;1662;49.310;8.134;2024-03-02T08:37:25;14.20;;;12.80;;
3299;SDS011;1662;49.310;8.134;2024-03-02T08:39:51;12.53;;;11.23;;
3299;SDS011;1662;49.310;8.134;2024-03-02T08:42:17;13.47;;;12.07;;
3299;SDS011;1662;49.310;8.134;2024-03-02T08:44:42;11.00;;;9.90;;
3299;SDS011;1662;49.310;8.134;2024-03-02T08:47:08;12.53;;;11.23;;
3299;SDS011;1662;49.310;8.134;2024-03-02T08:49:34;11.50;;;10.40;;
3299;SDS011;1662;49.310;8.134;2024-03-02T08:52:00;12.03;;;10.50;;
3299;SDS011;1662;49.310;8.134;2024-03-02T08:54:25;12.20;;;10.90;;
3299;SDS011;1662;49.310;8.134;2024-03-02T08:56:54;11.37;;;10.30;;
3299;SDS011;1662;49.310;8.134;2024-03-02T08:59:20;12.20;;;10.97;;
3299;SDS011;1662;49.310;8.134;2024-03-02T09:01:45;13.13;;;11.17;;
3299;SDS011;1662;49.310;8.134;2024-03-02T09:04:11;15.80;;;11.10;;
3299;SDS011;1662;49.310;8.134;2024-03-02T09:06:36;11.90;;;10.60;;
3299;SDS011;1662;49.310;8.134;2024-03-02T09:09:02;12.73;;;11.43;;
3299;SDS011;1662;49.310;8.134;2024-03-02T09:11:36;15.33;;;11.80;;
3299;SDS011;1662;49.310;8.134;2024-03-02T09:14:02;18.77;;;12.57;;
3299;SDS011;1662;49.310;8.134;2024-03-02T09:16:27;13.10;;;11.20;;
3299;SDS011;1662;49.310;8.134;2024-03-02T09:18:55;16.50;;;11.97;;
3299;SDS011;1662;49.310;8.134;2024-03-02T09:21:21;15.77;;;12.17;;
3299;SDS011;1662;49.310;8.134;2024-03-02T09:23:47;13.47;;;10.97;;
3299;SDS011;1662;49.310;8.134;2024-03-02T09:26:13;16.77;;;10.87;;
3299;SDS011;1662;49.310;8.134;2024-03-02T09:28:44;13.27;;;11.90;;
3299;SDS011;1662;49.310;8.134;2024-03-02T09:31:10;14.83;;;11.37;;
3299;SDS011;1662;49.310;8.134;2024-03-02T09:33:37;15.90;;;11.30;;
3299;SDS011;1662;49.310;8.134;2024-03-02T09:36:04;14.60;;;10.90;;
3299;SDS011;1662;49.310;8.134;2024-03-02T09:38:31;15.10;;;12.80;;
3299;SDS011;1662;49.310;8.134;2024-03-02T09:40:59;21.50;;;12.40;;
3299;SDS011;1662;49.310;8.134;2024-03-02T09:43:25;11.77;;;10.57;;
3299;SDS011;1662;49.310;8.134;2024-03-02T09:45:51;11.27;;;9.90;;
3299;SDS011;1662;49.310;8.134;2024-03-02T09:48:18;12.67;;;10.83;;
3299;SDS011;1662;49.310;8.134;2024-03-02T09:50:45;11.00;;;9.87;;
3299;SDS011;1662;49.310;8.134;2024-03-02T09:53:11;11.50;;;10.30;;
3299;SDS011;1662;49.310;8.134;2024-03-02T09:55:37;14.90;;;11.43;;
3299;SDS011;1662;49.310;8.134;2024-03-02T09:58:07;16.30;;;11.20;;
3299;SDS011;1662;49.310;8.134;2024-03-02T10:00:33;13.57;;;10.93;;
3299;SDS011;1662;49.310;8.134;2024-03-02T10:02:59;14.10;;;11.70;;
3299;SDS011;1662;49.310;8.134;2024-03-02T10:05:28;12.70;;;11.40;;
3299;SDS011;1662;49.310;8.134;2024-03-02T10:08:00;10.23;;;9.23;;
3299;SDS011;1662;49.310;8.134;2024-03-02T10:13:05;10.23;;;8.17;;
3299;SDS011;1662;49.310;8.134;2024-03-02T10:15:34;10.87;;;9.77;;
3299;SDS011;1662;49.310;8.134;2024-03-02T10:18:02;9.80;;;8.90;;
3299;SDS011;1662;49.310;8.134;2024-03-02T10:20:31;11.13;;;9.03;;
3299;SDS011;1662;49.310;8.134;2024-03-02T10:23:16;11.10;;;8.20;;
3299;SDS011;1662;49.310;8.134;2024-03-02T10:25:45;11.40;;;9.73;;
3299;SDS011;1662;49.310;8.134;2024-03-02T10:28:11;10.90;;;8.77;;
3299;SDS011;1662;49.310;8.134;2024-03-02T10:30:37;8.73;;;7.93;;
3299;SDS011;1662;49.310;8.134;2024-03-02T10:33:02;10.10;;;9.10;;
3299;SDS011;1662;49.310;8.134;2024-03-02T10:35:30;8.23;;;7.70;;
3299;SDS011;1662;49.310;8.134;2024-03-02T10:38:01;8.97;;;7.57;;
3299;SDS011;1662;49.310;8.134;2024-03-02T10:40:29;8.77;;;7.90;;
3299;SDS011;1662;49.310;8.134;2024-03-02T10:42:55;7.60;;;6.90;;
3299;SDS011;1662;49.310;8.134;2024-03-02T10:45:21;7.23;;;6.60;;
3299;SDS011;1662;49.310;8.134;2024-03-02T10:47:48;7.97;;;7.27;;
3299;SDS011;1662;49.310;8.134;2024-03-02T10:50:14;7.70;;;6.93;;
3299;SDS011;1662;49.310;8.134;2024-03-02T10:52:40;9.40;;;7.70;;
3299;SDS011;1662;49.310;8.134;2024-03-02T10:55:06;8.13;;;7.30;;
3299;SDS011;1662;49.310;8.134;2024-03-02T10:57:41;7.30;;;6.50;;
3299;SDS011;1662;49.310;8.134;2024-03-02T11:00:11;6.20;;;5.80;;
3299;SDS011;1662;49.310;8.134;2024-03-02T11:02:44;4.93;;;4.60;;
3299;SDS011;1662;49.310;8.134;2024-03-02T11:05:27;4.70;;;4.50;;
3299;SDS011;1662;49.310;8.134;2024-03-02T11:07:57;4.90;;;4.50;;
3299;SDS011;1662;49.310;8.134;2024-03-02T11:13:32;6.20;;;5.10;;
3299;SDS011;1662;49.310;8.134;2024-03-02T11:16:24;4.87;;;4.50;;
3299;SDS011;1662;49.310;8.134;2024-03-02T11:18:47;4.57;;;4.27;;
3299;SDS011;1662;49.310;8.134;2024-03-02T11:21:14;4.50;;;4.20;;
3299;SDS011;1662;49.310;8.134;2024-03-02T11:23:41;5.37;;;4.97;;
3299;SDS011;1662;49.310;8.134;2024-03-02T11:26:20;5.40;;;5.00;;
3299;SDS011;1662;49.310;8.134;2024-03-02T11:28:46;5.17;;;4.77;;
3299;SDS011;1662;49.310;8.134;2024-03-02T11:31:12;5.03;;;4.73;;
3299;SDS011;1662;49.310;8.134;2024-03-02T11:33:38;5.10;;;4.57;;
3299;SDS011;1662;49.310;8.134;2024-03-02T11:36:06;5.30;;;4.90;;
3299;SDS011;1662;49.310;8.134;2024-03-02T11:38:33;5.77;;;5.23;;
3299;SDS011;1662;49.310;8.134;2024-03-02T11:41:03;4.80;;;4.47;;
3299;SDS011;1662;49.310;8.134;2024-03-02T11:43:33;4.90;;;4.60;;
3299;SDS011;1662;49.310;8.134;2024-03-02T11:46:04;5.67;;;5.17;;
3299;SDS011;1662;49.310;8.134;2024-03-02T11:48:32;6.07;;;5.60;;
3299;SDS011;1662;49.310;8.134;2024-03-02T11:51:02;5.17;;;4.87;;
3299;SDS011;1662;49.310;8.134;2024-03-02T11:53:28;9.57;;;5.90;;
3299;SDS011;1662;49.310;8.134;2024-03-02T11:55:58;6.40;;;5.90;;
3299;SDS011;1662;49.310;8.134;2024-03-02T11:58:24;5.60;;;5.07;;
3299;SDS011;1662;49.310;8.134;2024-03-02T12:00:51;6.30;;;5.90;;
3299;SDS011;1662;49.310;8.134;2024-03-02T12:03:17;6.73;;;6.03;;
3299;SDS011;1662;49.310;8.134;2024-03-02T12:05:49;6.07;;;5.67;;
3299;SDS011;1662;49.310;8.134;2024-03-02T12:08:15;6.63;;;6.03;;
3299;SDS011;1662;49.310;8.134;2024-03-02T12:10:42;5.90;;;5.50;;
3299;SDS011;1662;49.310;8.134;2024-03-02T12:13:09;6.80;;;6.07;;
3299;SDS011;1662;49.310;8.134;2024-03-02T12:15:37;6.30;;;5.80;;
3299;SDS011;1662;49.310;8.134;2024-03-02T12:18:04;6.50;;;6.10;;
3299;SDS011;1662;49.310;8.134;2024-03-02T12:20:31;8.10;;;6.50;;
3299;SDS011;1662;49.310;8.134;2024-03-02T12:22:58;6.67;;;6.13;;
3299;SDS011;1662;49.310;8.134;2024-03-02T12:25:27;8.70;;;7.57;;
3299;SDS011;1662;49.310;8.134;2024-03-02T12:27:55;6.97;;;6.30;;
3299;SDS011;1662;49.310;8.134;2024-03-02T12:30:23;6.63;;;6.13;;
3299;SDS011;1662;49.310;8.134;2024-03-02T12:32:49;6.57;;;6.07;;
3299;SDS011;1662;49.310;8.134;2024-03-02T12:35:15;6.20;;;5.70;;
3299;SDS011;1662;49.310;8.134;2024-03-02T12:37:42;7.10;;;6.43;;
3299;SDS011;1662;49.310;8.134;2024-03-02T12:40:11;6.83;;;6.23;;
3299;SDS011;1662;49.310;8.134;2024-03-02T12:42:42;7.30;;;6.60;;
3299;SDS011;1662;49.310;8.134;2024-03-02T12:45:08;6.73;;;6.23;;
3299;SDS011;1662;49.310;8.134;2024-03-02T12:47:34;6.60;;;6.07;;
3299;SDS011;1662;49.310;8.134;2024-03-02T12:50:00;7.80;;;7.20;;
3299;SDS011;1662;49.310;8.134;2024-03-02T12:52:26;7.47;;;6.87;;
3299;SDS011;1662;49.310;8.134;2024-03-02T12:54:52;8.20;;;7.50;;
3299;SDS011;1662;49.310;8.134;2024-03-02T12:57:25;8.20;;;7.50;;
3299;SDS011;1662;49.310;8.134;2024-03-02T12:59:52;8.00;;;7.30;;
3299;SDS011;1662;49.310;8.134;2024-03-02T13:02:21;6.87;;;6.40;;
3299;SDS011;1662;49.310;8.134;2024-03-02T13:04:55;7.43;;;6.83;;
3299;SDS011;1662;49.310;8.134;2024-03-02T13:07:23;6.97;;;6.40;;
3299;SDS011;1662;49.310;8.134;2024-03-02T13:09:50;7.60;;;7.10;;
3299;SDS011;1662;49.310;8.134;2024-03-02T13:12:16;7.27;;;6.70;;
3299;SDS011;1662;49.310;8.134;2024-03-02T13:14:42;7.63;;;7.10;;
3299;SDS011;1662;49.310;8.134;2024-03-02T13:17:08;7.70;;;6.90;;
3299;SDS011;1662;49.310;8.134;2024-03-02T13:19:34;7.40;;;6.90;;
3299;SDS011;1662;49.310;8.134;2024-03-02T13:22:00;7.23;;;6.63;;
3299;SDS011;1662;49.310;8.134;2024-03-02T13:24:29;7.70;;;7.20;;
3299;SDS011;1662;49.310;8.134;2024-03-02T13:26:55;8.97;;;8.10;;
3299;SDS011;1662;49.310;8.134;2024-03-02T13:29:23;6.80;;;6.40;;
3299;SDS011;1662;49.310;8.134;2024-03-02T13:31:52;8.80;;;7.00;;
3299;SDS011;1662;49.310;8.134;2024-03-02T13:34:18;7.10;;;6.70;;
3299;SDS011;1662;49.310;8.134;2024-03-02T13:36:44;6.53;;;6.20;;
3299;SDS011;1662;49.310;8.134;2024-03-02T13:39:10;6.70;;;6.30;;
3299;SDS011;1662;49.310;8.134;2024-03-02T13:41:36;6.73;;;6.37;;
3299;SDS011;1662;49.310;8.134;2024-03-02T13:44:04;8.33;;;7.33;;
3299;SDS011;1662;49.310;8.134;2024-03-02T13:46:30;6.47;;;6.13;;
3299;SDS011;1662;49.310;8.134;2024-03-02T13:48:57;6.80;;;6.20;;
3299;SDS011;1662;49.310;8.134;2024-03-02T13:51:23;6.93;;;6.53;;
3299;SDS011;1662;49.310;8.134;2024-03-02T13:53:50;6.30;;;5.90;;
3299;SDS011;1662;49.310;8.134;2024-03-02T13:56:16;7.17;;;6.67;;
3299;SDS011;1662;49.310;8.134;2024-03-02T13:58:43;7.30;;;6.90;;
3299;SDS011;1662;49.310;8.134;2024-03-02T14:01:11;6.33;;;6.03;;
3299;SDS011;1662;49.310;8.134;2024-03-02T14:03:37;5.90;;;5.50;;
3299;SDS011;1662;49.310;8.134;2024-03-02T14:06:05;5.80;;;5.37;;
3299;SDS011;1662;49.310;8.134;2024-03-02T14:08:31;6.70;;;6.20;;
3299;SDS011;1662;49.310;8.134;2024-03-02T14:10:59;6.47;;;6.17;;
3299;SDS011;1662;49.310;8.134;2024-03-02T14:13:25;6.67;;;6.27;;
3299;SDS011;1662;49.310;8.134;2024-03-02T14:15:54;5.40;;;5.10;;
3299;SDS011;1662;49.310;8.134;2024-03-02T14:18:20;5.73;;;5.37;;
3299;SDS011;1662;49.310;8.134;2024-03-02T14:20:46;5.83;;;5.53;;
3299;SDS011;1662;49.310;8.134;2024-03-02T14:23:18;5.83;;;5.63;;
3299;SDS011;1662;49.310;8.134;2024-03-02T14:25:46;5.77;;;5.53;;
3299;SDS011;1662;49.310;8.134;2024-03-02T14:28:12;5.63;;;5.33;;
3299;SDS011;1662;49.310;8.134;2024-03-02T14:30:41;4.93;;;4.77;;
3299;SDS011;1662;49.310;8.134;2024-03-02T14:33:07;5.47;;;4.97;;
3299;SDS011;1662;49.310;8.134;2024-03-02T14:35:33;4.93;;;4.63;;
3299;SDS011;1662;49.310;8.134;2024-03-02T14:38:01;4.93;;;4.73;;
3299;SDS011;1662;49.310;8.134;2024-03-02T14:40:27;5.43;;;5.20;;
3299;SDS011;1662;49.310;8.134;2024-03-02T14:42:54;5.40;;;5.07;;
3299;SDS011;1662;49.310;8.134;2024-03-02T14:45:20;5.50;;;5.30;;
3299;SDS011;1662;49.310;8.134;2024-03-02T14:47:46;6.27;;;5.87;;
3299;SDS011;1662;49.310;8.134;2024-03-02T14:50:12;5.30;;;5.10;;
3299;SDS011;1662;49.310;8.134;2024-03-02T14:52:41;5.37;;;5.07;;
3299;SDS011;1662;49.310;8.134;2024-03-02T14:55:07;5.20;;;4.97;;
3299;SDS011;1662;49.310;8.134;2024-03-02T14:57:33;5.43;;;5.17;;
3299;SDS011;1662;49.310;8.134;2024-03-02T15:00:02;5.70;;;5.47;;
3299;SDS011;1662;49.310;8.134;2024-03-02T15:02:32;5.10;;;4.90;;
3299;SDS011;1662;49.310;8.134;2024-03-02T15:05:00;5.10;;;4.87;;
3299;SDS011;1662;49.310;8.134;2024-03-02T15:07:27;4.80;;;4.50;;
3299;SDS011;1662;49.310;8.134;2024-03-02T15:09:53;5.37;;;5.07;;
3299;SDS011;1662;49.310;8.134;2024-03-02T15:12:20;5.33;;;4.93;;
3299;SDS011;1662;49.310;8.134;2024-03-02T15:14:48;4.97;;;4.67;;
3299;SDS011;1662;49.310;8.134;2024-03-02T15:17:14;5.10;;;4.80;;
3299;SDS011;1662;49.310;8.134;2024-03-02T15:19:41;4.77;;;4.37;;